createdAt,value
2022-11-03T00:03:18.763Z,21.35
2022-11-03T00:11:05.044Z,21.48
2022-11-03T00:18:54.715Z,21.52
2022-11-03T00:26:50.091Z,21.68
2022-11-03T00:34:34.943Z,21.61
2022-11-03T00:42:13.119Z,21.57
2022-11-03T00:49:58.631Z,21.52
2022-11-03T00:57:49.866Z,21.43
2022-11-03T01:05:43.748Z,21.46
2022-11-03T01:13:31.631Z,21.36
2022-11-03T01:21:08.639Z,21.32
2022-11-03T01:28:55.571Z,21.29
2022-11-03T01:36:38.417Z,21.29
2022-11-03T01:44:11.718Z,21.27
2022-11-03T01:51:59.927Z,21.26
2022-11-03T01:59:53.058Z,21.28
2022-11-03T02:07:38.574Z,21.27
2022-11-03T02:15:27.892Z,21.26
2022-11-03T02:23:37.394Z,21.23
2022-11-03T02:31:15.929Z,21.22
2022-11-03T02:39:35.222Z,21.23
2022-11-03T02:47:31.508Z,21.23
2022-11-03T02:55:15.706Z,21.21
2022-11-03T03:03:37.192Z,21.23
2022-11-03T03:11:56.195Z,21.23
2022-11-03T03:19:57.017Z,21.19
2022-11-03T03:28:07.260Z,21.2
2022-11-03T03:35:48.262Z,21.22
2022-11-03T03:43:38.604Z,21.18
2022-11-03T03:51:33.115Z,21.17
2022-11-03T03:59:05.517Z,21.16
2022-11-03T04:06:32.606Z,21.22
2022-11-03T04:14:17.316Z,21.25
2022-11-03T04:21:47.683Z,21.18
2022-11-03T04:29:41.320Z,21.21
2022-11-03T04:37:14.868Z,21.22
2022-11-03T04:45:01.145Z,21.18
2022-11-03T04:53:05.518Z,21.23
2022-11-03T05:01:05.198Z,21.18
2022-11-03T05:08:53.146Z,21.16
2022-11-03T05:16:40.693Z,21.15
2022-11-03T05:24:46.340Z,21.08
2022-11-03T05:32:47.740Z,21.07
2022-11-03T05:40:35.643Z,21.09
2022-11-03T05:48:19.679Z,21.04
2022-11-03T05:56:13.233Z,21.07
2022-11-03T06:04:10.951Z,21.05
2022-11-03T06:12:20.766Z,21.06
2022-11-03T06:20:08.773Z,21.03
2022-11-03T06:28:09.155Z,21
2022-11-03T06:36:14.449Z,21.03
2022-11-03T06:44:02.364Z,21.02
2022-11-03T06:52:07.201Z,21.03
2022-11-03T07:00:32.779Z,21.11
2022-11-03T07:08:13.931Z,21.81
2022-11-03T07:16:16.135Z,22.06
2022-11-03T07:24:19.773Z,22.36
2022-11-03T07:32:30.628Z,22.48
2022-11-03T07:40:31.724Z,22.57
2022-11-03T07:48:30.559Z,22.49
2022-11-03T07:56:38.754Z,22.56
2022-11-03T08:04:56.712Z,22.52
2022-11-03T08:12:40.165Z,22.37
2022-11-03T08:20:37.316Z,22.23
2022-11-03T08:28:42.609Z,22.15
2022-11-03T08:36:43.805Z,22.11
2022-11-03T08:44:27.671Z,22.02
2022-11-03T08:51:56.667Z,21.96
2022-11-03T08:59:40.881Z,22.01
2022-11-03T09:07:07.868Z,21.96
2022-11-03T09:14:42.019Z,21.94
2022-11-03T09:22:34.432Z,21.88
2022-11-03T09:30:13.054Z,21.92
2022-11-03T09:38:33.746Z,21.98
2022-11-03T09:46:30.957Z,21.88
2022-11-03T09:54:21.442Z,21.9
2022-11-03T10:02:08.109Z,21.75
2022-11-03T10:10:01.781Z,21.61
2022-11-03T10:17:49.967Z,21.62
2022-11-03T10:25:50.901Z,21.53
2022-11-03T10:34:06.397Z,21.59
2022-11-03T10:42:07.332Z,21.61
2022-11-03T10:50:08.847Z,21.42
2022-11-03T10:57:59.932Z,21.36
2022-11-03T11:05:43.861Z,21.35
2022-11-03T11:13:33.233Z,21.3
2022-11-03T11:21:41.371Z,21.27
2022-11-03T11:29:25.297Z,21.24
2022-11-03T11:37:04.254Z,21.26
2022-11-03T11:44:50.805Z,21.24
2022-11-03T11:52:42.909Z,21.25
2022-11-03T12:00:55.183Z,21.28
2022-11-03T12:08:56.364Z,21.37
2022-11-03T12:16:47.298Z,21.26
2022-11-03T12:25:03.348Z,21.43
2022-11-03T12:32:49.433Z,21.41
2022-11-03T12:40:25.653Z,21.33
2022-11-03T12:47:46.720Z,21.36
2022-11-03T12:55:38.215Z,21.3
2022-11-03T13:03:14.457Z,21.32
2022-11-03T13:10:53.343Z,21.36
2022-11-03T13:18:29.323Z,21.34
2022-11-03T13:26:07.196Z,21.3
2022-11-03T13:33:48.849Z,21.39
2022-11-03T13:41:15.745Z,21.34
2022-11-03T14:04:44.844Z,21.25
2022-11-03T14:12:08.136Z,21.16
2022-11-03T14:19:44.999Z,21.2
2022-11-03T14:27:29.963Z,21.12
2022-11-03T14:35:02.520Z,21.12
2022-11-03T14:42:32.065Z,21.11
2022-11-03T14:50:04.752Z,21.12
2022-11-03T14:57:39.491Z,21.1
2022-11-03T15:05:03.817Z,21.11
2022-11-03T15:12:42.411Z,21.08
2022-11-03T15:20:18.827Z,21.09
2022-11-03T15:27:49.401Z,21.03
2022-11-03T15:35:10.993Z,21.04
2022-11-03T15:42:33.664Z,21.03
2022-11-03T15:50:10.411Z,21
2022-11-03T15:57:37.425Z,21.04
2022-11-03T16:05:07.107Z,20.99
2022-11-03T16:12:39.596Z,20.97
2022-11-03T16:20:18.776Z,20.99
2022-11-03T16:27:43.447Z,20.99
2022-11-03T16:35:16.312Z,20.94
2022-11-03T16:42:41.819Z,20.95
2022-11-03T16:50:11.081Z,20.93
2022-11-03T16:57:45.832Z,20.96
2022-11-03T17:05:17.818Z,20.99
2022-11-03T17:12:51.680Z,20.94
2022-11-03T17:20:26.672Z,20.93
2022-11-03T17:28:11.457Z,20.89
2022-11-03T17:36:05.692Z,20.85
2022-11-03T17:43:54.899Z,20.89
2022-11-03T17:51:38.842Z,20.82
2022-11-03T17:59:21.439Z,20.79
2022-11-03T18:07:20.368Z,20.82
2022-11-03T18:15:02.174Z,20.83
2022-11-03T18:22:42.453Z,20.87
2022-11-03T18:30:12.052Z,20.8
2022-11-03T18:38:00.307Z,20.76
2022-11-03T18:45:37.856Z,20.75
2022-11-03T18:53:24.465Z,20.73
2022-11-03T19:01:05.089Z,20.78
2022-11-03T19:08:43.880Z,20.76
2022-11-03T19:16:26.116Z,20.77
2022-11-03T19:23:58.888Z,20.73
2022-11-03T19:31:37.657Z,20.82
2022-11-03T19:39:29.492Z,20.79
2022-11-03T19:47:14.231Z,20.75
2022-11-03T19:54:58.887Z,20.77
2022-11-03T20:02:40.151Z,20.78
2022-11-03T20:10:12.116Z,20.73
2022-11-03T20:17:50.471Z,20.77
2022-11-03T20:25:19.472Z,20.75
2022-11-03T20:33:05.821Z,20.79
2022-11-03T20:40:42.931Z,20.84
2022-11-03T20:48:32.093Z,20.82
2022-11-03T20:56:02.040Z,20.82
2022-11-03T21:04:00.781Z,20.87
2022-11-03T21:11:24.369Z,20.83
2022-11-03T21:19:24.384Z,20.75
2022-11-03T21:27:03.007Z,20.83
2022-11-03T21:34:47.082Z,20.79
2022-11-03T21:42:39.438Z,20.74
2022-11-03T21:50:09.964Z,20.74
2022-11-03T21:57:36.194Z,20.81
2022-11-03T22:05:10.919Z,20.77
2022-11-03T22:12:55.592Z,20.87
2022-11-03T22:20:33.568Z,20.79
2022-11-03T22:28:20.235Z,20.84
2022-11-03T22:35:54.868Z,20.75
2022-11-03T22:43:36.707Z,20.83
2022-11-03T22:51:04.133Z,20.78
2022-11-03T22:58:40.461Z,20.88
2022-11-03T23:06:17.215Z,20.87
2022-11-03T23:13:49.773Z,20.77
2022-11-03T23:21:31.217Z,20.77
2022-11-03T23:29:09.938Z,20.75
2022-11-03T23:36:38.991Z,20.67
2022-11-03T23:44:10.973Z,20.66
2022-11-03T23:51:53.539Z,20.66
2022-11-03T23:59:21.154Z,20.63
